Time;durP1;ratioP1;P1;durP2;ratioP2;P2;SDS_P1;SDS_P2;PMS_P1;PMS_P2;Temp;Humidity;BMP_temperature;BMP_pressure;BME280_temperature;BME280_humidity;BME280_pressure;Samples;Min_cycle;Max_cycle;Signal;HPM_P1;HPM_P2
2021/03/05 00:00:30;;;;;;;25.63;12.40;;;;;;;3.58;65.09;99001.98;1763101;78;21115;-62
2021/03/05 00:02:58;;;;;;;24.97;12.30;;;;;;;3.56;65.13;99007.84;1754554;79;21524;-61
2021/03/05 00:05:27;;;;;;;26.60;13.00;;;;;;;3.55;65.23;99003.42;1754887;79;21100;-58
2021/03/05 00:07:57;;;;;;;27.60;13.00;;;;;;;3.55;65.18;98995.45;1755041;79;20990;-62
2021/03/05 00:10:27;;;;;;;22.53;11.37;;;;;;;3.54;65.14;98994.58;1755478;79;21135;-58
2021/03/05 00:12:56;;;;;;;24.73;12.53;;;;;;;3.55;65.16;98997.65;1758671;79;21159;-59
2021/03/05 00:15:25;;;;;;;23.47;12.73;;;;;;;3.55;65.06;98996.78;1760193;79;21120;-58
2021/03/05 00:17:52;;;;;;;24.40;13.47;;;;;;;3.52;65.05;98992.41;1759384;79;21047;-58
2021/03/05 00:20:22;;;;;;;26.30;13.40;;;;;;;3.50;65.00;99002.69;1757379;79;22804;-58
2021/03/05 00:22:50;;;;;;;29.37;13.93;;;;;;;3.46;65.11;99005.92;1760854;79;21121;-60
2021/03/05 00:25:18;;;;;;;29.07;13.50;;;;;;;3.45;65.25;98997.52;1757977;79;21152;-61
2021/03/05 00:27:45;;;;;;;26.97;14.47;;;;;;;3.45;65.38;98999.31;1756907;79;21179;-59
2021/03/05 00:30:14;;;;;;;22.53;12.60;;;;;;;3.47;65.54;99000.14;1756860;79;22252;-58
2021/03/05 00:32:42;;;;;;;29.47;14.30;;;;;;;3.47;65.56;98999.69;1757494;79;21383;-58
2021/03/05 00:35:11;;;;;;;27.97;13.87;;;;;;;3.47;65.64;98999.69;1715733;80;21208;-58
2021/03/05 00:37:39;;;;;;;26.73;13.40;;;;;;;3.48;65.69;99008.08;1735218;80;21156;-59
2021/03/05 00:40:09;;;;;;;26.73;12.90;;;;;;;3.48;65.70;99008.08;1733160;80;21126;-57
2021/03/05 00:42:36;;;;;;;26.70;13.17;;;;;;;3.51;65.68;99015.07;1734063;80;21131;-58
2021/03/05 00:45:05;;;;;;;22.50;11.97;;;;;;;3.48;65.53;99006.75;1729965;80;21379;-60
2021/03/05 00:47:34;;;;;;;26.07;12.63;;;;;;;3.45;65.48;99005.50;1735036;80;21808;-59
2021/03/05 00:50:04;;;;;;;27.30;12.57;;;;;;;3.39;65.48;99011.90;1732129;80;21173;-60
2021/03/05 00:52:33;;;;;;;23.67;11.50;;;;;;;3.38;65.38;99003.50;1731290;80;21205;-59
2021/03/05 00:55:01;;;;;;;24.27;12.47;;;;;;;3.36;65.40;98999.14;1733259;80;21225;-62
2021/03/05 00:57:29;;;;;;;25.07;13.00;;;;;;;3.34;65.49;99002.30;1694978;80;21256;-60
2021/03/05 00:59:56;;;;;;;24.97;12.47;;;;;;;3.33;65.43;98997.89;1731647;80;22301;-59
2021/03/05 01:02:23;;;;;;;25.37;12.63;;;;;;;3.33;65.45;99000.55;1731934;80;21181;-58
2021/03/05 01:04:52;;;;;;;25.93;12.00;;;;;;;3.34;65.49;98999.18;1732081;80;21225;-59
2021/03/05 01:07:19;;;;;;;23.07;12.00;;;;;;;3.35;65.42;98996.06;1730959;80;21580;-57
2021/03/05 01:09:47;;;;;;;27.27;12.57;;;;;;;3.36;65.50;98990.70;1729147;80;21216;-58
2021/03/05 01:12:14;;;;;;;24.77;11.60;;;;;;;3.36;65.49;98996.48;1732119;80;21533;-58
2021/03/05 01:14:41;;;;;;;22.63;11.43;;;;;;;3.35;65.43;98989.41;1734813;80;21181;-62
2021/03/05 01:17:08;;;;;;;21.80;11.13;;;;;;;3.34;65.34;98995.19;1736143;80;21450;-60
2021/03/05 01:19:36;;;;;;;20.23;10.47;;;;;;;3.33;65.34;98996.11;1733462;80;21201;-58
2021/03/05 01:22:04;;;;;;;22.60;10.93;;;;;;;3.33;65.48;99000.09;1736841;80;21257;-59
2021/03/05 01:24:31;;;;;;;26.13;11.97;;;;;;;3.32;65.47;98990.83;1737172;80;21203;-60
2021/03/05 01:27:00;;;;;;;21.60;11.67;;;;;;;3.31;65.43;99005.08;1734289;80;21216;-61
2021/03/05 01:29:28;;;;;;;21.27;10.43;;;;;;;3.30;65.45;98988.70;1734597;80;21180;-58
2021/03/05 01:31:55;;;;;;;21.27;10.77;;;;;;;3.29;65.47;98993.60;1733002;80;21514;-60
2021/03/05 01:34:23;;;;;;;21.67;10.77;;;;;;;3.28;65.47;98995.84;1740265;78;21500;-59
2021/03/05 01:36:50;;;;;;;23.73;11.03;;;;;;;3.27;65.42;98998.09;1778662;78;21189;-58
2021/03/05 01:39:18;;;;;;;25.20;11.53;;;;;;;3.24;65.44;98997.72;1785720;78;21158;-59
2021/03/05 01:41:45;;;;;;;23.33;11.20;;;;;;;3.21;65.47;99003.61;1779588;78;21210;-59
2021/03/05 01:44:13;;;;;;;26.07;12.87;;;;;;;3.18;65.47;99003.69;1780657;78;21200;-59
2021/03/05 01:46:40;;;;;;;24.87;12.13;;;;;;;3.15;65.55;99009.13;1776944;78;22720;-62
2021/03/05 01:49:07;;;;;;;25.73;13.30;;;;;;;3.15;65.70;99013.11;1780561;78;21243;-60
2021/03/05 01:51:36;;;;;;;24.97;11.47;;;;;;;3.16;65.75;99012.16;1782446;78;21173;-62
2021/03/05 01:54:06;;;;;;;24.20;10.43;;;;;;;3.16;65.78;99011.70;1780370;78;21130;-62
2021/03/05 01:56:40;;;;;;;23.80;12.37;;;;;;;3.18;65.75;99018.31;1786155;78;21178;-58
2021/03/05 01:59:12;;;;;;;25.17;11.53;;;;;;;3.16;65.74;99021.47;1776076;78;21389;-59
2021/03/05 02:01:40;;;;;;;25.70;12.80;;;;;;;3.14;65.79;99024.20;1783792;78;21146;-60
2021/03/05 02:04:12;;;;;;;24.50;12.30;;;;;;;3.14;65.80;99024.20;1776565;78;21186;-59
2021/03/05 02:06:41;;;;;;;27.17;11.93;;;;;;;3.14;65.88;99027.32;1777842;78;21146;-63
2021/03/05 02:09:09;;;;;;;23.50;12.23;;;;;;;3.15;65.87;99027.73;1778960;78;21178;-59
2021/03/05 02:11:37;;;;;;;22.77;12.17;;;;;;;3.14;65.89;99018.88;1777276;78;21194;-60
2021/03/05 02:14:06;;;;;;;20.13;10.57;;;;;;;3.14;65.97;99023.33;1778063;78;21596;-64
2021/03/05 02:16:45;;;;;;;23.43;10.67;;;;;;;3.13;66.00;99018.92;1779490;78;21182;-65
2021/03/05 02:19:48;;;;;;;26.33;11.43;;;;;;;3.11;66.11;99025.61;1778328;78;21473;-66
2021/03/05 02:23:11;;;;;;;23.07;10.23;;;;;;;3.08;66.16;99025.69;1773985;78;21198;-62
2021/03/05 02:26:01;;;;;;;30.17;11.57;;;;;;;3.07;66.32;99031.92;1779078;78;22519;-67
2021/03/05 02:29:20;;;;;;;22.43;11.30;;;;;;;3.05;66.39;99028.47;1777171;78;21589;-66
2021/03/05 02:31:50;;;;;;;24.23;10.70;;;;;;;3.04;66.42;99042.21;1782928;78;21146;-65
2021/03/05 02:34:23;;;;;;;22.43;11.60;;;;;;;3.03;66.62;99042.25;1782132;78;21334;-68
2021/03/05 02:37:10;;;;;;;22.95;10.75;;;;;;;3.00;66.59;99045.86;1758950;79;21093;-66
2021/03/05 02:39:51;;;;;;;23.27;10.33;;;;;;;3.00;66.60;99046.31;1758527;79;21200;-67
2021/03/05 02:42:39;;;;;;;21.23;9.93;;;;;;;2.99;66.63;99053.42;1764235;79;21447;-67
2021/03/05 02:45:25;;;;;;;21.13;10.53;;;;;;;2.96;66.64;99052.20;1756467;79;21178;-64
2021/03/05 02:47:57;;;;;;;25.87;12.23;;;;;;;2.95;66.73;99060.21;1754283;78;21143;-62
2021/03/05 02:50:27;;;;;;;27.80;12.10;;;;;;;2.92;66.78;99061.16;1762889;79;21607;-59
2021/03/05 02:52:59;;;;;;;26.73;11.17;;;;;;;2.95;66.88;99059.76;1763289;79;22547;-60
2021/03/05 02:55:26;;;;;;;18.73;8.67;;;;;;;2.99;67.02;99063.18;1759873;79;21152;-61
2021/03/05 02:57:56;;;;;;;21.80;10.43;;;;;;;3.03;67.03;99067.05;1758823;79;21124;-58
2021/03/05 03:00:24;;;;;;;27.13;11.40;;;;;;;3.06;67.00;99059.45;1755353;79;21649;-61
2021/03/05 03:02:53;;;;;;;23.97;12.27;;;;;;;3.10;67.01;99065.54;1765433;79;21491;-61
2021/03/05 03:05:20;;;;;;;22.17;11.00;;;;;;;3.13;67.05;99062.80;1761304;79;21168;-63
2021/03/05 03:07:49;;;;;;;24.40;12.20;;;;;;;3.14;66.99;99064.09;1754936;79;21182;-64
2021/03/05 03:10:18;;;;;;;22.20;11.63;;;;;;;3.13;66.89;99068.99;1756116;79;21183;-60
2021/03/05 03:12:47;;;;;;;29.20;13.80;;;;;;;3.11;66.84;99085.90;1759243;79;21147;-63
2021/03/05 03:15:15;;;;;;;20.30;10.90;;;;;;;3.07;66.86;99082.90;1759866;79;21911;-60
2021/03/05 03:17:44;;;;;;;28.10;12.70;;;;;;;3.03;66.94;99083.01;1765032;79;21127;-60
2021/03/05 03:20:14;;;;;;;23.10;11.40;;;;;;;3.00;66.97;99092.84;1762785;79;21131;-62
2021/03/05 03:22:42;;;;;;;23.97;12.70;;;;;;;2.98;67.06;99088.02;1758967;79;21100;-59
2021/03/05 03:25:11;;;;;;;25.73;11.60;;;;;;;2.97;67.15;99091.63;1762707;79;21542;-63
2021/03/05 03:27:39;;;;;;;23.43;11.83;;;;;;;2.97;67.24;99088.96;1758399;79;21190;-59
2021/03/05 03:30:09;;;;;;;25.60;11.70;;;;;;;2.96;67.20;99097.39;1757816;79;21403;-61
2021/03/05 03:32:37;;;;;;;24.37;11.83;;;;;;;2.93;67.13;99089.49;1761071;79;21143;-61
2021/03/05 03:35:07;;;;;;;25.53;11.60;;;;;;;2.91;67.21;99095.30;1760572;79;21191;-60
2021/03/05 03:37:35;;;;;;;22.33;10.40;;;;;;;2.88;67.22;99096.73;1764277;79;21175;-58
2021/03/05 03:40:16;;;;;;;26.17;11.20;;;;;;;2.84;67.26;99104.37;1759857;79;21195;-57
2021/03/05 03:42:45;;;;;;;23.53;11.23;;;;;;;2.82;67.40;99100.00;1695769;82;21232;-61
2021/03/05 03:45:14;;;;;;;25.70;11.50;;;;;;;2.81;67.42;99095.59;1758721;79;21233;-63
2021/03/05 03:47:41;;;;;;;24.70;11.23;;;;;;;2.77;67.54;99105.91;1761515;79;21162;-58
2021/03/05 03:50:26;;;;;;;18.03;8.90;;;;;;;2.77;67.58;99097.48;1761884;79;21159;-58
2021/03/05 03:53:02;;;;;;;18.50;8.65;;;;;;;2.78;67.61;99100.55;1761395;79;21151;-59
2021/03/05 03:55:29;;;;;;;23.90;11.93;;;;;;;2.80;67.66;99100.06;1764584;79;21694;-61
2021/03/05 03:57:57;;;;;;;22.53;10.53;;;;;;;2.84;67.71;99095.06;1765078;79;21187;-59
2021/03/05 04:00:25;;;;;;;21.60;11.10;;;;;;;2.86;67.67;99102.55;1761830;79;21178;-59
2021/03/05 04:02:53;;;;;;;25.30;11.07;;;;;;;2.86;67.71;99099.02;1759265;79;21637;-62
2021/03/05 04:05:27;;;;;;;23.77;10.07;;;;;;;2.86;67.74;99103.88;1761342;79;21187;-59
2021/03/05 04:07:56;;;;;;;20.00;9.43;;;;;;;2.85;67.73;99109.23;1760079;79;22720;-62
2021/03/05 04:10:23;;;;;;;20.77;9.30;;;;;;;2.83;67.76;99104.41;1765885;79;22407;-61
2021/03/05 04:12:51;;;;;;;26.33;11.57;;;;;;;2.82;67.82;99114.16;1761269;79;21135;-60
2021/03/05 04:15:19;;;;;;;23.57;11.70;;;;;;;2.81;67.81;99107.09;1763928;79;21194;-62
2021/03/05 04:17:47;;;;;;;21.03;10.33;;;;;;;2.80;67.81;99116.47;1763847;79;21190;-58
2021/03/05 04:20:15;;;;;;;19.70;9.80;;;;;;;2.79;67.90;99113.39;1763224;79;22191;-57
2021/03/05 04:22:43;;;;;;;21.13;11.07;;;;;;;2.78;67.96;99120.95;1756956;79;21229;-62
2021/03/05 04:25:13;;;;;;;24.07;10.47;;;;;;;2.78;68.06;99114.30;1763260;79;21190;-62
2021/03/05 04:27:41;;;;;;;23.57;10.40;;;;;;;2.76;68.23;99113.01;1754197;79;21608;-63
2021/03/05 04:30:10;;;;;;;27.03;11.93;;;;;;;2.73;68.45;99114.86;1761232;79;21171;-58
2021/03/05 04:32:42;;;;;;;24.67;11.00;;;;;;;2.70;68.73;99119.83;1723841;80;22152;-60
2021/03/05 04:35:11;;;;;;;23.03;11.53;;;;;;;2.68;68.99;99115.45;1758722;79;21585;-62
2021/03/05 04:37:39;;;;;;;27.33;11.90;;;;;;;2.65;69.29;99119.92;1776337;78;21569;-61
2021/03/05 04:40:09;;;;;;;26.20;10.20;;;;;;;2.65;69.69;99118.59;1777942;78;21213;-61
2021/03/05 04:42:37;;;;;;;20.67;10.50;;;;;;;2.64;70.03;99119.96;1777970;78;21496;-61
2021/03/05 04:45:08;;;;;;;25.33;11.23;;;;;;;2.62;70.29;99124.47;1776932;78;21553;-63
2021/03/05 04:47:35;;;;;;;23.97;12.03;;;;;;;2.63;70.58;99124.89;1787292;78;21127;-58
2021/03/05 04:50:04;;;;;;;28.90;11.83;;;;;;;2.65;70.72;99126.56;1782275;78;21745;-60
2021/03/05 04:52:31;;;;;;;30.43;13.03;;;;;;;2.67;71.08;99125.20;1779832;78;21252;-62
2021/03/05 04:54:59;;;;;;;28.00;12.93;;;;;;;2.64;71.34;99126.15;1778007;78;21190;-60
2021/03/05 04:57:27;;;;;;;26.23;11.73;;;;;;;2.62;71.53;99133.77;1781673;78;21206;-59
2021/03/05 04:59:54;;;;;;;30.10;13.97;;;;;;;2.57;71.95;99137.86;1778557;78;21608;-59
2021/03/05 05:02:22;;;;;;;32.13;12.70;;;;;;;2.51;72.28;99132.70;1779337;78;21198;-60
2021/03/05 05:04:49;;;;;;;24.13;11.27;;;;;;;2.49;72.53;99137.64;1782249;78;21537;-59
2021/03/05 05:07:16;;;;;;;27.57;12.27;;;;;;;2.48;72.73;99146.06;1780928;78;21130;-61
2021/03/05 05:09:45;;;;;;;30.07;12.90;;;;;;;2.49;73.10;99147.80;1784199;78;21482;-58
2021/03/05 05:12:13;;;;;;;24.77;12.40;;;;;;;2.51;73.29;99141.13;1776964;78;21867;-60
2021/03/05 05:14:40;;;;;;;29.53;11.23;;;;;;;2.52;73.49;99145.53;1777452;78;21234;-58
2021/03/05 05:17:07;;;;;;;27.43;11.37;;;;;;;2.49;73.52;99139.84;1781935;78;21352;-60
2021/03/05 05:19:35;;;;;;;29.77;12.93;;;;;;;2.44;73.68;99145.73;1780245;78;21091;-63
2021/03/05 05:22:02;;;;;;;28.47;12.20;;;;;;;2.44;73.98;99142.20;1776877;78;22042;-62
2021/03/05 05:24:29;;;;;;;28.90;13.90;;;;;;;2.43;74.13;99144.44;1777796;78;22542;-61
2021/03/05 05:26:57;;;;;;;22.47;11.17;;;;;;;2.35;74.22;99148.62;1776062;78;21186;-58
2021/03/05 05:29:25;;;;;;;23.43;11.30;;;;;;;2.28;74.46;99153.22;1777981;78;21317;-62
2021/03/05 05:31:52;;;;;;;27.60;11.23;;;;;;;2.25;74.71;99151.95;1784414;78;21210;-58
2021/03/05 05:34:20;;;;;;;26.97;11.83;;;;;;;2.24;74.93;99156.84;1776240;78;21948;-61
2021/03/05 05:36:47;;;;;;;28.27;10.53;;;;;;;2.25;75.08;99157.72;1759618;78;21242;-58
2021/03/05 05:39:15;;;;;;;30.23;11.90;;;;;;;2.28;75.19;99158.98;1752735;79;21780;-58
2021/03/05 05:41:42;;;;;;;25.37;11.70;;;;;;;2.34;75.28;99157.95;1730988;79;21104;-62
2021/03/05 05:44:13;;;;;;;26.30;12.97;;;;;;;2.40;75.25;99160.44;1760138;79;21124;-64
2021/03/05 05:46:45;;;;;;;28.00;12.53;;;;;;;2.43;75.22;99165.23;1751465;79;21280;-62
2021/03/05 05:49:12;;;;;;;29.93;11.83;;;;;;;2.43;75.26;99164.36;1760188;79;21616;-62
2021/03/05 05:51:40;;;;;;;29.40;12.87;;;;;;;2.40;75.23;99173.27;1757563;79;21184;-63
2021/03/05 05:54:09;;;;;;;26.83;13.33;;;;;;;2.35;75.19;99167.21;1759632;79;21187;-64
2021/03/05 05:56:41;;;;;;;26.23;11.20;;;;;;;2.34;75.25;99169.45;1760499;79;21854;-64
2021/03/05 05:59:08;;;;;;;27.07;11.57;;;;;;;2.36;75.31;99180.03;1736925;79;21586;-67
2021/03/05 06:01:36;;;;;;;26.97;11.90;;;;;;;2.37;75.35;99180.45;1760243;79;21159;-68
2021/03/05 06:04:07;;;;;;;26.90;11.10;;;;;;;2.39;75.32;99182.59;1760600;79;21101;-67
2021/03/05 06:06:37;;;;;;;29.20;12.60;;;;;;;2.39;75.32;99180.81;1764181;79;21128;-68
2021/03/05 06:09:04;;;;;;;26.97;11.93;;;;;;;2.40;75.22;99183.89;1758140;79;21139;-69
2021/03/05 06:11:38;;;;;;;27.30;11.70;;;;;;;2.40;75.19;99184.34;1754993;79;21146;-63
2021/03/05 06:14:09;;;;;;;28.07;12.00;;;;;;;2.40;75.11;99189.20;1762286;79;21613;-66
2021/03/05 06:16:59;;;;;;;28.67;13.37;;;;;;;2.36;75.08;99191.53;1702504;82;21248;-65
2021/03/05 06:19:30;;;;;;;26.20;11.67;;;;;;;2.31;75.07;99197.39;1699604;81;21194;-64
2021/03/05 06:21:59;;;;;;;28.60;11.67;;;;;;;2.33;75.20;99204.00;1701027;81;21189;-62
2021/03/05 06:24:27;;;;;;;24.97;11.17;;;;;;;2.37;75.15;99207.02;1700044;81;21420;-63
2021/03/05 06:27:00;;;;;;;29.13;12.27;;;;;;;2.42;75.08;99202.00;1700369;81;21165;-62
2021/03/05 06:29:30;;;;;;;26.87;11.87;;;;;;;2.48;74.96;99204.50;1702800;81;21178;-62
2021/03/05 06:32:02;;;;;;;29.63;13.30;;;;;;;2.53;74.77;99204.41;1679651;82;21217;-63
2021/03/05 06:34:51;;;;;;;29.30;13.03;;;;;;;2.52;74.61;99207.52;1702945;81;21283;-63
2021/03/05 06:37:23;;;;;;;30.60;13.03;;;;;;;2.52;74.53;99206.19;1764075;79;21195;-62
2021/03/05 06:40:03;;;;;;;33.73;13.47;;;;;;;2.52;74.42;99203.98;1764940;79;21167;-62
2021/03/05 06:42:49;;;;;;;26.20;11.87;;;;;;;2.50;74.42;99208.45;1729260;80;21130;-62
2021/03/05 06:45:20;;;;;;;30.50;13.17;;;;;;;2.47;74.27;99203.20;1679898;82;22196;-64
2021/03/05 06:48:08;;;;;;;33.67;13.13;;;;;;;2.47;74.32;99212.05;1699510;82;21194;-63
2021/03/05 06:50:42;;;;;;;29.93;12.90;;;;;;;2.48;74.23;99206.28;1686095;82;21228;-61
2021/03/05 06:53:23;;;;;;;32.40;13.53;;;;;;;2.53;74.28;99211.05;1690423;82;22154;-60
2021/03/05 06:55:52;;;;;;;27.60;12.40;;;;;;;2.58;74.09;99214.45;1668649;84;21222;-61
2021/03/05 06:58:21;;;;;;;26.07;11.87;;;;;;;2.56;73.91;99206.52;1721165;81;21229;-61
2021/03/05 07:00:48;;;;;;;30.17;12.43;;;;;;;2.54;73.60;99206.16;1720050;80;21189;-61
2021/03/05 07:03:22;;;;;;;29.87;13.07;;;;;;;2.52;73.54;99203.98;1722709;81;22773;-62
2021/03/05 07:05:53;;;;;;;24.67;11.28;;;;;;;2.49;73.37;99208.91;1721104;81;21209;-60
2021/03/05 07:09:34;;;;;;;25.50;11.20;;;;;;;2.56;73.44;99209.17;1762200;79;27137;-62
2021/03/05 07:12:12;;;;;;;24.07;11.37;;;;;;;2.63;73.36;99216.56;1732798;80;21015;-64
2021/03/05 07:14:42;;;;;;;26.07;12.97;;;;;;;2.78;73.23;99209.52;1731083;80;21375;-64
2021/03/05 07:17:09;;;;;;;33.37;14.73;;;;;;;2.90;72.89;99201.67;1748203;80;21173;-64
2021/03/05 07:19:37;;;;;;;31.77;13.77;;;;;;;2.95;72.55;99202.44;1730040;80;21010;-63
2021/03/05 07:22:07;;;;;;;32.33;14.43;;;;;;;2.93;72.38;99203.80;1730491;80;21215;-63
2021/03/05 07:24:39;;;;;;;28.70;12.83;;;;;;;2.89;72.20;99205.27;1723027;80;21412;-61
2021/03/05 07:27:08;;;;;;;31.87;13.30;;;;;;;2.83;72.09;99202.30;1721925;80;21441;-64
2021/03/05 07:29:43;;;;;;;27.87;12.50;;;;;;;2.83;71.85;99200.97;1694861;82;21185;-63
2021/03/05 07:32:49;;;;;;;28.13;12.43;;;;;;;2.86;71.67;99201.35;1685516;82;21536;-61
2021/03/05 07:35:32;;;;;;;26.70;11.20;;;;;;;2.87;71.50;99199.98;1681873;82;21250;-63
2021/03/05 07:38:00;;;;;;;25.93;10.37;;;;;;;2.85;71.30;99203.59;1684485;82;21212;-64
2021/03/05 07:40:28;;;;;;;29.60;13.40;;;;;;;2.84;71.22;99202.71;1684551;82;21638;-62
2021/03/05 07:42:56;;;;;;;32.73;15.40;;;;;;;2.88;71.07;99203.06;1674976;82;21242;-65
2021/03/05 07:45:23;;;;;;;31.43;15.17;;;;;;;2.86;71.12;99201.35;1626910;84;21227;-64
2021/03/05 07:47:53;;;;;;;33.27;15.67;;;;;;;2.90;71.12;99215.84;1674344;84;21171;-63
2021/03/05 07:50:23;;;;;;;26.07;13.33;;;;;;;2.92;71.10;99215.34;1675168;84;21212;-62
2021/03/05 07:52:51;;;;;;;28.10;13.53;;;;;;;2.96;71.14;99224.13;1669937;83;21219;-62
2021/03/05 07:55:43;;;;;;;29.37;13.27;;;;;;;2.99;70.98;99220.91;1669517;84;21215;-63
2021/03/05 07:58:10;;;;;;;22.47;12.60;;;;;;;3.04;70.77;99216.83;1668582;84;22165;-65
2021/03/05 08:00:51;;;;;;;26.70;12.53;;;;;;;3.03;70.54;99221.27;1643816;84;21203;-63
2021/03/05 08:03:23;;;;;;;30.57;14.87;;;;;;;3.08;70.27;99209.62;1669316;84;21196;-63
2021/03/05 08:05:51;;;;;;;30.73;13.37;;;;;;;3.06;70.01;99217.66;1671495;84;21293;-62
2021/03/05 08:08:22;;;;;;;29.10;13.67;;;;;;;3.01;70.08;99215.56;1666791;84;21231;-63
2021/03/05 08:10:59;;;;;;;27.90;14.07;;;;;;;3.05;70.01;99210.59;1657927;84;21227;-64
2021/03/05 08:13:51;;;;;;;26.53;12.97;;;;;;;3.11;69.71;99212.20;1655112;84;21260;-63
2021/03/05 08:16:34;;;;;;;25.70;13.40;;;;;;;3.17;69.50;99214.23;1658395;84;21179;-63
2021/03/05 08:19:14;;;;;;;26.73;13.28;;;;;;;3.21;69.12;99214.59;1648277;85;22367;-63
2021/03/05 08:21:57;;;;;;;21.37;10.83;;;;;;;3.26;68.97;99219.77;1692940;82;21211;-63
2021/03/05 08:24:39;;;;;;;20.47;11.30;;;;;;;3.27;68.28;99217.52;1700084;82;21214;-64
2021/03/05 08:27:18;;;;;;;24.50;12.10;;;;;;;3.29;67.90;99218.36;1701477;82;21149;-63
2021/03/05 08:30:03;;;;;;;28.27;13.93;;;;;;;3.30;67.74;99217.45;1701017;82;21491;-63
2021/03/05 08:32:53;;;;;;;21.50;9.78;;;;;;;3.34;67.54;99223.09;1701189;82;21271;-63
2021/03/05 08:35:41;;;;;;;18.33;8.27;;;;;;;3.37;67.11;99219.90;1695976;82;21255;-62
2021/03/05 08:38:15;;;;;;;25.03;11.00;;;;;;;3.37;66.58;99214.58;1707114;82;21254;-62
2021/03/05 08:40:52;;;;;;;23.17;11.13;;;;;;;3.42;66.41;99211.78;1704607;82;21769;-64
2021/03/05 08:43:24;;;;;;;20.90;10.77;;;;;;;3.48;66.18;99220.06;1701487;82;21627;-63
2021/03/05 08:46:02;;;;;;;18.30;8.47;;;;;;;3.57;66.07;99221.14;1703632;82;21204;-63
2021/03/05 08:48:37;;;;;;;18.87;7.90;;;;;;;3.62;65.34;99216.55;1703092;82;21020;-64
2021/03/05 08:51:19;;;;;;;18.90;9.88;;;;;;;3.61;65.04;99224.11;1704770;82;21119;-62
2021/03/05 08:53:56;;;;;;;21.10;11.27;;;;;;;3.61;65.11;99226.31;1705481;82;21152;-63
2021/03/05 08:56:29;;;;;;;26.07;13.03;;;;;;;3.66;65.11;99229.70;1704028;82;21436;-64
2021/03/05 08:58:58;;;;;;;26.40;12.37;;;;;;;3.71;64.98;99232.25;1706447;82;20997;-64
2021/03/05 09:01:36;;;;;;;18.30;8.13;;;;;;;3.75;64.91;99227.23;1704498;82;21039;-65
2021/03/05 09:04:20;;;;;;;20.73;8.80;;;;;;;3.76;64.28;99224.53;1705228;82;21123;-64
2021/03/05 09:06:54;;;;;;;14.63;7.83;;;;;;;3.77;64.08;99226.28;1704354;82;21120;-62
2021/03/05 09:09:33;;;;;;;17.23;6.47;;;;;;;3.83;63.62;99227.05;1866137;75;27069;-64
2021/03/05 09:12:13;;;;;;;13.07;6.63;;;;;;;3.79;63.22;99231.57;1835907;76;20988;-64
2021/03/05 09:14:45;;;;;;;15.23;7.47;;;;;;;3.84;63.43;99232.75;1838143;76;21203;-63
2021/03/05 09:17:13;;;;;;;11.87;5.77;;;;;;;3.88;62.99;99231.30;1804199;76;21189;-62
2021/03/05 09:19:46;;;;;;;11.00;4.77;;;;;;;3.93;62.16;99240.47;1781432;78;20969;-64
2021/03/05 09:22:24;;;;;;;11.43;5.50;;;;;;;3.88;61.65;99239.75;1774359;79;28295;-62
2021/03/05 09:25:10;;;;;;;14.10;6.67;;;;;;;3.84;61.78;99241.61;1775210;79;20996;-63
2021/03/05 09:27:39;;;;;;;15.63;7.13;;;;;;;3.86;61.77;99243.78;1770561;79;21156;-61
2021/03/05 09:30:25;;;;;;;15.98;7.47;;;;;;;3.88;62.03;99245.08;1742891;79;21191;-62
2021/03/05 09:32:54;;;;;;;14.07;7.45;;;;;;;3.95;61.99;99246.63;1769775;79;21423;-63
2021/03/05 09:35:27;;;;;;;15.63;7.33;;;;;;;3.98;61.69;99244.77;1774403;79;21731;-63
2021/03/05 09:37:54;;;;;;;15.90;8.00;;;;;;;3.99;61.88;99253.17;1779821;78;21219;-61
2021/03/05 09:40:23;;;;;;;16.90;8.83;;;;;;;4.02;61.80;99251.72;1803397;78;22554;-62
2021/03/05 09:42:54;;;;;;;16.80;8.13;;;;;;;4.09;61.81;99263.94;1757685;78;22208;-63
2021/03/05 09:45:52;;;;;;;13.90;7.10;;;;;;;4.11;61.29;99261.23;1749083;80;21107;-64
2021/03/05 09:48:33;;;;;;;17.40;7.57;;;;;;;4.10;61.12;99264.81;1779344;78;21115;-63
2021/03/05 09:51:07;;;;;;;14.27;8.13;;;;;;;4.19;61.19;99271.20;1781766;79;21102;-61
2021/03/05 09:53:39;;;;;;;17.60;9.63;;;;;;;4.28;60.94;99264.26;1780869;78;21190;-63
2021/03/05 09:56:07;;;;;;;15.20;7.87;;;;;;;4.36;60.82;99264.02;1744469;80;21233;-64
2021/03/05 09:58:35;;;;;;;15.87;9.13;;;;;;;4.41;60.76;99262.11;1782482;79;21012;-62
2021/03/05 10:01:04;;;;;;;21.17;9.27;;;;;;;4.43;60.41;99270.90;1776308;78;21558;-63
2021/03/05 10:03:32;;;;;;;17.17;9.43;;;;;;;4.38;60.51;99272.39;1746368;80;21149;-61
2021/03/05 10:06:00;;;;;;;17.07;9.60;;;;;;;4.32;60.43;99267.26;1753690;79;23001;-62
2021/03/05 10:08:29;;;;;;;17.00;9.07;;;;;;;4.32;60.63;99266.38;1752524;79;21251;-63
2021/03/05 10:11:09;;;;;;;17.90;9.93;;;;;;;4.37;60.57;99266.64;1755216;80;21519;-64
2021/03/05 10:13:56;;;;;;;16.60;9.03;;;;;;;4.44;60.63;99272.65;1755353;80;21544;-63
2021/03/05 10:16:34;;;;;;;16.20;7.77;;;;;;;4.49;60.26;99268.94;1759077;79;20941;-64
2021/03/05 10:19:11;;;;;;;17.47;8.20;;;;;;;4.55;59.81;99269.20;1783747;79;21193;-63
2021/03/05 10:21:48;;;;;;;18.37;8.80;;;;;;;4.63;59.64;99271.62;1777935;78;21907;-63
2021/03/05 10:24:21;;;;;;;14.60;8.53;;;;;;;4.67;59.25;99272.82;1741639;80;21175;-61
2021/03/05 10:29:56;;;;;;;11.10;3.97;;;;;;;4.68;58.61;99273.20;1781358;78;21191;-64
2021/03/05 10:32:33;;;;;;;6.93;3.77;;;;;;;4.58;57.52;99273.11;1776915;79;21276;-64
2021/03/05 10:35:10;;;;;;;7.20;3.67;;;;;;;4.41;57.25;99272.77;1775526;79;21250;-64
2021/03/05 10:37:40;;;;;;;7.00;4.23;;;;;;;4.28;57.17;99267.38;1752635;80;21163;-62
2021/03/05 10:40:11;;;;;;;5.97;2.73;;;;;;;4.16;57.07;99273.52;1756114;80;21118;-62
2021/03/05 10:42:38;;;;;;;6.07;2.83;;;;;;;4.08;57.11;99277.33;1755720;79;21218;-61
2021/03/05 10:45:06;;;;;;;6.60;2.67;;;;;;;4.03;57.07;99281.89;1749698;79;21402;-62
2021/03/05 10:47:35;;;;;;;7.23;3.30;;;;;;;3.99;57.40;99288.25;1751973;79;21213;-63
2021/03/05 10:50:04;;;;;;;15.97;7.73;;;;;;;3.94;58.53;99287.48;1755136;79;21178;-62
2021/03/05 10:52:31;;;;;;;15.30;8.37;;;;;;;3.83;60.63;99298.92;1751222;79;21473;-64
2021/03/05 10:54:59;;;;;;;16.77;7.73;;;;;;;3.68;62.30;99308.19;1751212;79;21218;-61
2021/03/05 10:57:28;;;;;;;13.37;6.50;;;;;;;3.57;63.91;99310.29;1750948;80;21458;-63
2021/03/05 10:59:56;;;;;;;13.53;6.53;;;;;;;3.41;65.19;99317.33;1756324;79;21213;-64
2021/03/05 11:02:24;;;;;;;14.70;6.67;;;;;;;3.30;67.22;99318.08;1751084;79;21176;-64
2021/03/05 11:04:51;;;;;;;17.17;8.10;;;;;;;3.16;67.47;99315.34;1751683;79;21548;-63
2021/03/05 11:07:18;;;;;;;17.67;8.20;;;;;;;3.11;68.40;99312.81;1752326;79;21191;-62
2021/03/05 11:09:47;;;;;;;18.57;8.37;;;;;;;3.09;68.97;99316.41;1752162;79;21721;-63
2021/03/05 11:12:15;;;;;;;74.87;40.93;;;;;;;3.07;69.35;99312.45;1783972;78;21642;-64
2021/03/05 11:14:42;;;;;;;328.20;159.03;;;;;;;3.09;69.75;99312.41;1750310;79;21611;-62
2021/03/05 11:17:09;;;;;;;48.53;22.27;;;;;;;3.13;70.02;99314.10;1753209;80;21212;-63
2021/03/05 11:19:37;;;;;;;63.63;29.40;;;;;;;3.17;70.48;99315.75;1753386;80;21108;-62
2021/03/05 11:22:04;;;;;;;27.00;14.07;;;;;;;3.14;70.83;99321.17;1757470;80;22446;-62
2021/03/05 11:24:32;;;;;;;44.80;19.60;;;;;;;3.12;71.02;99311.02;1754343;80;21246;-62
2021/03/05 11:27:02;;;;;;;35.33;16.50;;;;;;;3.13;71.37;99315.43;1752246;80;21043;-61
2021/03/05 11:29:29;;;;;;;295.77;131.37;;;;;;;3.12;71.53;99320.33;1754176;80;21225;-64
2021/03/05 11:31:58;;;;;;;91.70;40.67;;;;;;;3.11;71.73;99323.90;1753396;80;21576;-64
2021/03/05 11:34:25;;;;;;;35.70;18.00;;;;;;;3.08;72.05;99326.17;1756858;79;21227;-64
2021/03/05 11:36:53;;;;;;;30.07;14.70;;;;;;;3.05;72.40;99328.92;1755854;79;21150;-64
2021/03/05 11:39:20;;;;;;;56.93;30.87;;;;;;;3.00;72.61;99324.16;1755221;79;21118;-64
2021/03/05 11:41:48;;;;;;;30.17;15.63;;;;;;;3.02;72.68;99332.52;1754820;80;21105;-60
2021/03/05 11:44:17;;;;;;;49.17;36.43;;;;;;;3.04;72.65;99342.67;1756902;80;21129;-64
2021/03/05 11:46:45;;;;;;;17.27;9.30;;;;;;;3.01;72.50;99330.77;1754388;80;21567;-63
2021/03/05 11:49:13;;;;;;;12.77;5.67;;;;;;;3.06;72.80;99340.44;1755725;80;21164;-64
2021/03/05 11:51:42;;;;;;;14.90;7.87;;;;;;;3.11;72.28;99335.41;1757227;79;21115;-66